Time;durP1;ratioP1;P1;durP2;ratioP2;P2;SDS_P1;SDS_P2;PMS_P1;PMS_P2;Temp;Humidity;BMP_temperature;BMP_pressure;BME280_temperature;BME280_humidity;BME280_pressure;Samples;Min_cycle;Max_cycle;Signal;HPM_P1;HPM_P2
2023/07/12 00:01:30;;;;;;;3.30;2.83;;;19.50;99.90;;;;;;4930719;29;20034;-79
2023/07/12 00:03:56;;;;;;;2.88;1.90;;;19.50;99.90;;;;;;4931278;29;20505;-79
2023/07/12 00:06:36;;;;;;;6.25;2.22;;;19.40;99.90;;;;;;4930394;29;20027;-79
2023/07/12 00:09:06;;;;;;;1.80;1.50;;;19.40;99.90;;;;;;4930898;29;20056;-78
2023/07/12 00:11:31;;;;;;;5.72;2.08;;;19.30;99.90;;;;;;4932094;29;20084;-78
2023/07/12 00:13:57;;;;;;;6.68;2.70;;;19.30;99.90;;;;;;4930648;29;20055;-80
2023/07/12 00:16:29;;;;;;;5.55;2.08;;;19.30;99.90;;;;;;4930383;29;20083;-81
2023/07/12 00:18:56;;;;;;;3.63;2.33;;;19.40;99.90;;;;;;4931434;29;20028;-77
2023/07/12 00:21:24;;;;;;;2.97;1.50;;;19.30;99.90;;;;;;4931527;29;20106;-78
2023/07/12 00:23:55;;;;;;;5.65;1.88;;;19.40;99.90;;;;;;4930245;29;20044;-79
2023/07/12 00:26:35;;;;;;;6.10;2.28;;;19.30;99.90;;;;;;4930459;29;20028;-80
2023/07/12 00:29:04;;;;;;;5.38;2.05;;;19.40;99.90;;;;;;4930601;29;20480;-79
2023/07/12 00:31:30;;;;;;;6.05;2.05;;;19.40;99.90;;;;;;4931654;29;20030;-79
2023/07/12 00:33:56;;;;;;;2.97;1.73;;;19.40;99.90;;;;;;4932377;29;20054;-80
2023/07/12 00:36:25;;;;;;;9.63;2.83;;;19.40;99.90;;;;;;4930118;29;20403;-79
2023/07/12 00:38:51;;;;;;;5.93;2.17;;;19.30;99.90;;;;;;4931648;29;20028;-79
2023/07/12 00:41:45;;;;;;;1.92;1.63;;;19.30;99.90;;;;;;4930484;29;20060;-79
2023/07/12 00:44:17;;;;;;;2.53;2.15;;;19.30;99.90;;;;;;4930799;29;20104;-80
2023/07/12 00:46:48;;;;;;;4.75;2.50;;;19.30;99.90;;;;;;4933051;28;20024;-80
2023/07/12 00:49:14;;;;;;;6.10;2.60;;;19.20;99.90;;;;;;4952829;28;20117;-78
2023/07/12 00:51:48;;;;;;;5.95;2.55;;;19.10;99.90;;;;;;4970238;28;20106;-79
2023/07/12 00:54:24;;;;;;;8.98;2.75;;;19.20;99.90;;;;;;4973766;28;20495;-78
2023/07/12 00:56:50;;;;;;;4.78;2.22;;;19.00;99.90;;;;;;4947573;28;20030;-82
2023/07/12 00:59:23;;;;;;;5.45;2.67;;;18.90;99.90;;;;;;4969429;28;20037;-80
2023/07/12 01:02:00;;;;;;;3.95;1.85;;;19.00;99.90;;;;;;4936992;29;20047;-78
2023/07/12 01:04:30;;;;;;;3.97;2.10;;;18.90;99.90;;;;;;4953863;29;20035;-78
2023/07/12 01:06:56;;;;;;;6.20;2.60;;;18.90;99.90;;;;;;4936436;29;20027;-79
2023/07/12 01:09:23;;;;;;;7.43;1.83;;;18.80;99.90;;;;;;4953704;29;20562;-79
2023/07/12 01:11:50;;;;;;;3.50;2.78;;;18.90;99.90;;;;;;4953960;29;20375;-77
2023/07/12 01:14:17;;;;;;;5.47;2.10;;;18.80;99.90;;;;;;4936633;29;20028;-82
2023/07/12 01:16:47;;;;;;;11.63;2.88;;;18.80;99.90;;;;;;4936291;29;20061;-78
2023/07/12 01:19:13;;;;;;;4.70;1.98;;;18.80;99.90;;;;;;4935976;29;20492;-79
2023/07/12 01:21:47;;;;;;;7.72;2.92;;;18.80;99.90;;;;;;4953572;29;20055;-79
2023/07/12 01:24:13;;;;;;;5.65;1.85;;;18.80;99.90;;;;;;4954418;29;20447;-81
2023/07/12 01:26:45;;;;;;;10.98;2.58;;;18.80;99.90;;;;;;4968360;28;20019;-77
2023/07/12 01:29:11;;;;;;;2.20;2.05;;;18.80;99.90;;;;;;4931897;29;20421;-77
2023/07/12 01:31:38;;;;;;;2.80;2.53;;;18.80;99.90;;;;;;4953298;29;20483;-80
2023/07/12 01:34:04;;;;;;;4.47;2.00;;;18.80;99.90;;;;;;4953652;29;20027;-78
2023/07/12 01:36:31;;;;;;;2.55;2.35;;;18.80;99.90;;;;;;4937095;29;20028;-76
2023/07/12 01:38:58;;;;;;;12.73;3.00;;;18.80;99.90;;;;;;4937615;29;20519;-76
2023/07/12 01:41:24;;;;;;;3.03;2.38;;;18.80;99.90;;;;;;4953096;29;20028;-75
2023/07/12 01:43:51;;;;;;;5.03;1.92;;;18.80;99.90;;;;;;4953055;29;20039;-76
2023/07/12 01:46:17;;;;;;;1.70;1.60;;;18.80;99.90;;;;;;4952925;29;20118;-75
2023/07/12 01:48:43;;;;;;;4.30;2.03;;;18.80;99.90;;;;;;4953072;29;20106;-75
2023/07/12 01:51:09;;;;;;;9.63;2.88;;;18.80;99.90;;;;;;4953033;29;20015;-76
2023/07/12 01:53:35;;;;;;;4.43;2.58;;;18.80;99.90;;;;;;4935783;29;20097;-76
2023/07/12 01:56:02;;;;;;;3.55;2.33;;;18.80;99.90;;;;;;4935701;29;20027;-76
2023/07/12 01:58:28;;;;;;;14.73;3.08;;;18.70;99.90;;;;;;4953053;29;20031;-76
2023/07/12 02:00:54;;;;;;;4.40;2.20;;;18.60;99.90;;;;;;4935845;29;20034;-75
2023/07/12 02:03:20;;;;;;;4.97;2.15;;;18.50;99.90;;;;;;4935235;29;20043;-76
2023/07/12 02:05:46;;;;;;;4.07;1.70;;;18.50;99.90;;;;;;4953183;29;20023;-76
2023/07/12 02:08:12;;;;;;;3.20;1.88;;;18.50;99.90;;;;;;4952842;29;20019;-75
2023/07/12 02:10:38;;;;;;;7.60;2.75;;;18.50;99.90;;;;;;4952598;29;20023;-75
2023/07/12 02:13:04;;;;;;;4.30;2.60;;;18.60;99.90;;;;;;4953163;29;20074;-76
2023/07/12 02:15:30;;;;;;;5.43;2.45;;;18.60;99.90;;;;;;4935459;29;20023;-75
2023/07/12 02:17:56;;;;;;;3.92;2.22;;;18.70;99.90;;;;;;4952350;29;20380;-76
2023/07/12 02:20:23;;;;;;;2.40;1.98;;;18.80;99.90;;;;;;4935348;29;20515;-76
2023/07/12 02:22:49;;;;;;;6.78;2.63;;;18.80;99.90;;;;;;4935732;29;20476;-76
2023/07/12 02:25:16;;;;;;;2.63;1.75;;;18.80;99.90;;;;;;4935399;29;20062;-75
2023/07/12 02:27:44;;;;;;;4.72;2.85;;;18.80;99.90;;;;;;4935162;29;20550;-75
2023/07/12 02:30:12;;;;;;;2.65;1.75;;;18.90;99.90;;;;;;4952335;29;20085;-75
2023/07/12 02:32:38;;;;;;;2.63;1.58;;;18.90;99.90;;;;;;4952292;29;20081;-76
2023/07/12 02:35:04;;;;;;;4.45;1.55;;;18.90;99.90;;;;;;4952232;29;20024;-76
2023/07/12 02:37:32;;;;;;;2.63;2.42;;;19.00;99.90;;;;;;4952384;29;20035;-75
2023/07/12 02:39:57;;;;;;;8.75;3.22;;;19.00;99.90;;;;;;4952471;29;20050;-76
2023/07/12 02:42:23;;;;;;;11.07;2.45;;;19.10;99.90;;;;;;4952269;29;20469;-76
2023/07/12 02:44:49;;;;;;;3.90;2.50;;;19.10;99.90;;;;;;4952271;29;20032;-76
2023/07/12 02:47:14;;;;;;;2.70;1.60;;;19.10;99.90;;;;;;4951899;29;20039;-76
2023/07/12 02:49:40;;;;;;;14.90;2.55;;;19.10;99.90;;;;;;4952058;29;20146;-76
2023/07/12 02:52:08;;;;;;;3.03;1.95;;;19.20;99.90;;;;;;4951231;29;20509;-75
2023/07/12 02:54:34;;;;;;;3.78;2.60;;;19.20;99.90;;;;;;4952065;29;20131;-76
2023/07/12 02:57:01;;;;;;;10.15;2.83;;;19.30;99.90;;;;;;4952126;29;20038;-76
2023/07/12 02:59:27;;;;;;;12.05;3.95;;;19.30;99.90;;;;;;4951912;29;20045;-76
2023/07/12 03:01:53;;;;;;;1.65;1.55;;;19.40;99.90;;;;;;4951910;29;20361;-75
2023/07/12 03:04:20;;;;;;;5.47;2.50;;;19.40;99.90;;;;;;4952191;29;20468;-75
2023/07/12 03:06:46;;;;;;;5.38;2.17;;;19.40;99.90;;;;;;4950521;29;20114;-76
2023/07/12 03:09:11;;;;;;;4.10;2.47;;;19.40;99.90;;;;;;4950751;29;20488;-76
2023/07/12 03:11:37;;;;;;;2.92;1.60;;;19.30;99.90;;;;;;4950400;29;20031;-76
2023/07/12 03:14:03;;;;;;;13.52;2.03;;;19.30;99.90;;;;;;4933384;29;20031;-75
2023/07/12 03:16:29;;;;;;;2.40;2.20;;;19.30;99.90;;;;;;4950671;28;20027;-75
2023/07/12 03:18:55;;;;;;;3.05;2.10;;;19.30;99.90;;;;;;4950896;29;20041;-75
2023/07/12 03:21:21;;;;;;;2.55;2.22;;;19.30;99.90;;;;;;4950920;29;20046;-75
2023/07/12 03:23:48;;;;;;;3.17;1.73;;;19.30;99.90;;;;;;4951639;29;20483;-76
2023/07/12 03:26:14;;;;;;;6.15;2.13;;;19.30;99.90;;;;;;4952151;29;20240;-76
2023/07/12 03:28:40;;;;;;;2.95;2.28;;;19.30;99.90;;;;;;4952672;29;20023;-76
2023/07/12 03:31:10;;;;;;;4.30;2.10;;;19.30;99.90;;;;;;4952228;29;20108;-75
2023/07/12 03:33:36;;;;;;;3.20;2.30;;;19.30;99.90;;;;;;4952579;29;20042;-75
2023/07/12 03:36:03;;;;;;;2.95;1.85;;;19.30;99.90;;;;;;4951387;29;20027;-76
2023/07/12 03:38:30;;;;;;;5.13;2.78;;;19.30;99.90;;;;;;4951981;29;20058;-75
2023/07/12 03:40:58;;;;;;;6.55;2.85;;;19.30;99.90;;;;;;4952438;29;20030;-75
2023/07/12 03:43:24;;;;;;;6.13;2.92;;;19.30;99.90;;;;;;4935099;29;20039;-76
2023/07/12 03:45:50;;;;;;;4.95;2.97;;;19.40;99.90;;;;;;4952356;29;20066;-75
2023/07/12 03:48:16;;;;;;;3.58;2.25;;;19.40;99.90;;;;;;4934321;29;20393;-76
2023/07/12 03:50:43;;;;;;;18.00;3.45;;;19.40;99.90;;;;;;4951733;29;20035;-76
2023/07/12 03:53:08;;;;;;;8.50;2.78;;;19.40;99.90;;;;;;4952142;29;20031;-75
2023/07/12 03:55:39;;;;;;;9.05;3.92;;;19.40;99.90;;;;;;4951994;29;20019;-75
2023/07/12 03:58:06;;;;;;;4.82;3.28;;;19.30;99.90;;;;;;4934886;29;20226;-75
2023/07/12 04:00:31;;;;;;;7.13;2.67;;;19.30;99.90;;;;;;4952111;29;20028;-76
2023/07/12 04:02:57;;;;;;;5.25;2.20;;;19.30;99.90;;;;;;4951913;29;20038;-76
2023/07/12 04:05:23;;;;;;;10.93;2.53;;;19.40;99.90;;;;;;4961197;29;20276;-76
2023/07/12 04:07:48;;;;;;;6.90;2.33;;;19.30;99.90;;;;;;4962224;29;20210;-77
2023/07/12 04:10:14;;;;;;;5.32;2.00;;;19.20;99.90;;;;;;4961481;29;20323;-76
2023/07/12 04:12:40;;;;;;;3.53;2.00;;;19.20;99.90;;;;;;4961779;29;20045;-76
2023/07/12 04:15:06;;;;;;;10.88;3.10;;;19.20;99.90;;;;;;4961658;29;20025;-76
2023/07/12 04:17:32;;;;;;;9.45;2.67;;;19.20;99.90;;;;;;4961110;29;20031;-76
2023/07/12 04:19:58;;;;;;;5.50;2.83;;;19.20;99.90;;;;;;4960938;29;20625;-76
2023/07/12 04:22:24;;;;;;;12.50;3.78;;;19.20;99.90;;;;;;4960674;29;20031;-81
2023/07/12 04:24:52;;;;;;;3.92;2.15;;;19.20;99.90;;;;;;4943094;29;20298;-76
2023/07/12 04:27:18;;;;;;;5.05;2.25;;;19.20;99.90;;;;;;4946979;28;20038;-75
2023/07/12 04:29:44;;;;;;;3.25;2.15;;;19.30;99.90;;;;;;4937309;29;20073;-69
2023/07/12 04:32:10;;;;;;;5.50;2.33;;;19.40;99.90;;;;;;4953553;29;20157;-70
2023/07/12 04:34:36;;;;;;;3.65;2.63;;;19.40;99.90;;;;;;4936747;29;20126;-70
2023/07/12 04:37:01;;;;;;;4.63;2.20;;;19.40;99.90;;;;;;4954537;29;20090;-70
2023/07/12 04:39:27;;;;;;;8.13;2.30;;;19.40;99.90;;;;;;4954350;29;20031;-69
2023/07/12 04:41:52;;;;;;;3.33;2.38;;;19.50;99.90;;;;;;4954301;29;20038;-70
2023/07/12 04:44:18;;;;;;;5.93;2.65;;;19.50;99.90;;;;;;4952976;29;20058;-69
2023/07/12 04:46:44;;;;;;;5.80;2.67;;;19.50;99.90;;;;;;4952769;29;20113;-69
2023/07/12 04:49:10;;;;;;;6.15;2.38;;;19.50;99.90;;;;;;4952632;29;20032;-70
2023/07/12 04:51:35;;;;;;;2.60;1.95;;;19.60;99.90;;;;;;4952166;29;20015;-70
2023/07/12 04:54:01;;;;;;;9.18;2.30;;;19.60;99.90;;;;;;4952486;29;20035;-69
2023/07/12 04:56:29;;;;;;;2.60;2.00;;;19.50;99.90;;;;;;4952575;29;20539;-69
2023/07/12 04:58:55;;;;;;;1.43;1.33;;;19.50;99.90;;;;;;4953112;29;20058;-69
2023/07/12 05:01:21;;;;;;;2.97;2.33;;;19.50;99.90;;;;;;4954237;29;20068;-69
2023/07/12 05:03:47;;;;;;;4.13;1.83;;;19.50;99.90;;;;;;4953938;29;20035;-69
2023/07/12 05:06:14;;;;;;;10.10;2.78;;;19.60;99.90;;;;;;4953649;29;20037;-69
2023/07/12 05:08:40;;;;;;;2.00;1.77;;;19.60;99.90;;;;;;4953971;29;20138;-69
2023/07/12 05:11:05;;;;;;;2.30;1.95;;;19.70;99.90;;;;;;4954157;29;20039;-69
2023/07/12 05:13:33;;;;;;;5.28;2.50;;;19.80;99.90;;;;;;4953982;29;20036;-69
2023/07/12 05:15:59;;;;;;;11.82;3.25;;;19.90;99.90;;;;;;4953758;29;20023;-69
2023/07/12 05:18:24;;;;;;;5.43;2.22;;;19.90;99.90;;;;;;4936408;29;20399;-69
2023/07/12 05:20:52;;;;;;;8.07;2.92;;;20.00;99.90;;;;;;4953560;28;20480;-69
2023/07/12 05:23:18;;;;;;;4.32;2.38;;;20.10;99.90;;;;;;4953755;29;20287;-69
2023/07/12 05:25:51;;;;;;;8.23;2.20;;;20.10;99.90;;;;;;4954012;29;20059;-69
2023/07/12 05:28:17;;;;;;;5.22;2.55;;;20.20;99.90;;;;;;4953462;29;20050;-69
2023/07/12 05:30:44;;;;;;;2.20;2.00;;;20.40;99.90;;;;;;4953786;29;20468;-70
2023/07/12 05:33:10;;;;;;;2.15;2.00;;;20.40;99.90;;;;;;4935912;29;20042;-69
2023/07/12 05:35:35;;;;;;;4.45;2.05;;;20.50;99.90;;;;;;4953241;29;20185;-69
2023/07/12 05:38:02;;;;;;;3.00;2.20;;;20.70;99.90;;;;;;4952817;28;20427;-69
2023/07/12 05:40:29;;;;;;;6.03;2.45;;;20.60;99.90;;;;;;4953469;29;20469;-70
2023/07/12 05:42:55;;;;;;;8.95;3.13;;;20.70;99.90;;;;;;4953636;29;20130;-70
2023/07/12 05:45:21;;;;;;;8.48;3.00;;;20.90;99.90;;;;;;4953188;29;20103;-75
2023/07/12 05:47:47;;;;;;;3.60;1.52;;;21.10;99.90;;;;;;4953688;29;20372;-69
2023/07/12 05:50:15;;;;;;;4.22;2.67;;;21.20;99.90;;;;;;4953062;29;20082;-70
2023/07/12 05:52:41;;;;;;;7.90;2.13;;;21.30;99.90;;;;;;4953136;29;20031;-69
2023/07/12 05:55:08;;;;;;;4.57;2.50;;;21.30;99.90;;;;;;4953300;29;20267;-70
2023/07/12 05:57:34;;;;;;;3.53;2.08;;;21.10;99.90;;;;;;4953227;29;20059;-71
2023/07/12 06:00:00;;;;;;;4.78;2.30;;;21.10;99.90;;;;;;4935783;29;20054;-66
2023/07/12 06:02:26;;;;;;;4.13;2.60;;;21.10;99.90;;;;;;4953025;29;20047;-69
2023/07/12 06:04:52;;;;;;;3.85;2.45;;;21.30;99.90;;;;;;4952902;29;20027;-69
2023/07/12 06:07:18;;;;;;;10.65;2.47;;;21.40;99.90;;;;;;4953057;29;20082;-73
2023/07/12 06:09:43;;;;;;;2.63;1.55;;;21.50;99.90;;;;;;4953075;29;20484;-76
2023/07/12 06:12:10;;;;;;;3.55;2.22;;;21.50;99.90;;;;;;4952877;29;20035;-76
2023/07/12 06:14:36;;;;;;;7.43;2.00;;;21.50;99.90;;;;;;4952983;29;20069;-69
2023/07/12 06:17:01;;;;;;;4.13;2.45;;;21.50;99.90;;;;;;4952981;29;20117;-75
2023/07/12 06:19:27;;;;;;;2.65;1.98;;;21.50;99.90;;;;;;4952653;29;20074;-80
2023/07/12 06:21:53;;;;;;;4.38;2.95;;;21.40;99.90;;;;;;4935850;29;20363;-83
2023/07/12 06:24:19;;;;;;;7.35;3.72;;;21.50;99.90;;;;;;4944344;29;20046;-80
2023/07/12 06:26:44;;;;;;;11.55;2.95;;;21.50;99.90;;;;;;4933701;29;20039;-77
2023/07/12 06:29:10;;;;;;;4.78;2.22;;;21.50;99.90;;;;;;4949632;29;20030;-78
2023/07/12 06:31:36;;;;;;;6.97;2.30;;;21.50;99.90;;;;;;4933992;29;20023;-78
2023/07/12 06:34:03;;;;;;;2.80;2.50;;;21.60;99.90;;;;;;4932608;29;20086;-79
2023/07/12 06:36:30;;;;;;;3.92;2.08;;;21.90;99.90;;;;;;4934466;29;20046;-80
2023/07/12 06:38:56;;;;;;;7.75;2.53;;;22.10;99.90;;;;;;4935314;29;20546;-81
2023/07/12 06:41:22;;;;;;;2.88;2.40;;;22.30;99.90;;;;;;4935368;29;20163;-82
2023/07/12 06:43:48;;;;;;;3.08;2.40;;;22.60;99.90;;;;;;4935046;29;20155;-79
2023/07/12 06:46:15;;;;;;;3.90;2.42;;;23.40;99.90;;;;;;4935790;29;20059;-80
2023/07/12 06:48:41;;;;;;;4.07;2.10;;;24.70;99.90;;;;;;4935443;29;20027;-78
2023/07/12 06:51:06;;;;;;;7.45;2.00;;;25.70;99.90;;;;;;4951404;28;20031;-79
2023/07/12 06:53:32;;;;;;;4.03;2.03;;;26.70;99.90;;;;;;4952639;29;20472;-80
2023/07/12 06:55:58;;;;;;;8.88;2.78;;;27.40;99.90;;;;;;4935512;29;20023;-80
2023/07/12 06:58:24;;;;;;;5.43;2.33;;;28.30;99.90;;;;;;4934895;29;20480;-79
2023/07/12 07:00:50;;;;;;;8.18;2.70;;;29.20;99.90;;;;;;4952360;29;20019;-81
2023/07/12 07:03:16;;;;;;;5.82;2.17;;;29.50;99.90;;;;;;4952345;29;20075;-79
2023/07/12 07:05:47;;;;;;;4.85;2.58;;;29.60;99.90;;;;;;4934928;29;20267;-80
2023/07/12 07:08:18;;;;;;;4.93;2.08;;;29.40;99.90;;;;;;4935352;29;20110;-81
2023/07/12 07:10:49;;;;;;;11.18;3.13;;;29.30;99.90;;;;;;4935514;29;20023;-78
2023/07/12 07:13:15;;;;;;;5.53;2.40;;;29.40;99.90;;;;;;4935090;29;20480;-79
2023/07/12 07:15:40;;;;;;;3.47;2.63;;;28.80;99.90;;;;;;4935140;29;20055;-79
2023/07/12 07:18:08;;;;;;;3.95;2.47;;;27.70;99.90;;;;;;4935372;29;20132;-81
2023/07/12 07:20:34;;;;;;;5.43;3.15;;;26.80;99.90;;;;;;4952071;29;20138;-78
2023/07/12 07:22:59;;;;;;;4.72;2.70;;;26.10;99.90;;;;;;4951612;29;20197;-77
2023/07/12 07:25:28;;;;;;;12.70;4.15;;;25.50;99.90;;;;;;4934994;29;20501;-79
2023/07/12 07:27:54;;;;;;;3.17;2.45;;;25.10;99.90;;;;;;4934997;29;20369;-78
2023/07/12 07:30:20;;;;;;;8.35;3.35;;;24.70;99.90;;;;;;4951952;29;20031;-78
2023/07/12 07:32:46;;;;;;;6.32;2.97;;;24.90;99.90;;;;;;4952084;29;20514;-84
2023/07/12 07:35:12;;;;;;;5.05;3.28;;;24.60;99.90;;;;;;4934779;29;20024;-80
2023/07/12 07:37:38;;;;;;;4.47;3.17;;;24.30;99.90;;;;;;4951996;29;20051;-84
2023/07/12 07:40:04;;;;;;;7.93;3.47;;;24.00;99.90;;;;;;4951878;29;20368;-85
2023/07/12 07:42:30;;;;;;;10.85;3.00;;;24.30;99.90;;;;;;4934692;29;20031;-84
2023/07/12 07:44:55;;;;;;;6.00;3.35;;;24.90;99.90;;;;;;4952159;29;20158;-85
2023/07/12 07:47:21;;;;;;;6.03;2.83;;;25.00;99.90;;;;;;4952348;29;20492;-80
2023/07/12 07:49:46;;;;;;;11.02;3.42;;;24.90;99.90;;;;;;4934457;29;20031;-81
2023/07/12 07:52:12;;;;;;;4.63;2.97;;;24.60;99.90;;;;;;4939261;29;20038;-77
2023/07/12 07:54:41;;;;;;;6.40;3.15;;;24.50;99.90;;;;;;4952506;29;20520;-82
2023/07/12 07:57:07;;;;;;;;;;;24.20;99.90;;;;;;4956369;29;20499;-78
2023/07/12 07:59:33;;;;;;;7.18;3.50;;;24.00;99.90;;;;;;4952883;29;19907;-77
2023/07/12 08:01:58;;;;;;;6.78;2.45;;;23.90;99.90;;;;;;4954598;28;20563;-78
2023/07/12 08:04:24;;;;;;;4.68;2.50;;;23.90;99.90;;;;;;4956417;29;20104;-83
2023/07/12 08:06:50;;;;;;;7.15;2.95;;;24.00;99.90;;;;;;4938945;29;20023;-80
2023/07/12 08:09:16;;;;;;;5.60;2.80;;;24.10;99.90;;;;;;4955007;29;20039;-79
2023/07/12 08:11:42;;;;;;;3.95;2.90;;;24.00;99.90;;;;;;4955010;29;20035;-78
2023/07/12 08:14:08;;;;;;;10.40;4.03;;;24.10;99.90;;;;;;4937837;29;20024;-78
2023/07/12 08:16:35;;;;;;;3.47;2.90;;;24.10;99.90;;;;;;4920517;29;20073;-79
2023/07/12 08:19:03;;;;;;;7.05;3.55;;;24.00;99.90;;;;;;4940490;29;20475;-78
2023/07/12 08:21:29;;;;;;;4.75;2.63;;;24.00;99.90;;;;;;4945104;29;20602;-79
2023/07/12 08:23:55;;;;;;;3.78;3.28;;;23.80;99.90;;;;;;4965903;29;20054;-78
2023/07/12 08:26:21;;;;;;;5.47;2.60;;;23.90;99.90;;;;;;4944192;29;20015;-78
2023/07/12 08:28:47;;;;;;;4.60;3.38;;;23.90;99.90;;;;;;4948571;29;20027;-79
2023/07/12 08:31:14;;;;;;;3.90;3.60;;;24.00;99.90;;;;;;4942398;29;20026;-82
2023/07/12 08:33:41;;;;;;;26.30;3.30;;;24.10;99.90;;;;;;4937930;29;20027;-78
2023/07/12 08:36:07;;;;;;;4.10;2.75;;;24.50;99.90;;;;;;4955663;29;20039;-78
2023/07/12 08:38:33;;;;;;;3.65;2.95;;;25.20;99.90;;;;;;4955209;29;20027;-80
2023/07/12 08:40:59;;;;;;;3.67;2.35;;;25.10;99.90;;;;;;4937946;29;20070;-82
2023/07/12 08:43:32;;;;;;;2.75;2.40;;;25.10;99.90;;;;;;4945682;29;20251;-81
2023/07/12 08:46:17;;;;;;;4.43;2.50;;;25.20;99.90;;;;;;4963431;29;20259;-78
2023/07/12 08:48:43;;;;;;;5.00;2.60;;;25.20;99.90;;;;;;4946965;29;20019;-80
2023/07/12 08:51:15;;;;;;;6.65;2.80;;;25.40;99.90;;;;;;4951749;28;20038;-79
2023/07/12 08:53:42;;;;;;;3.85;2.70;;;25.70;99.90;;;;;;4941489;29;20070;-81
2023/07/12 08:56:13;;;;;;;4.78;2.78;;;25.60;99.90;;;;;;4923737;29;20304;-81
2023/07/12 08:58:47;;;;;;;3.33;2.47;;;25.80;99.90;;;;;;4922652;29;20476;-79
2023/07/12 09:01:44;;;;;;;7.72;2.80;;;25.90;99.90;;;;;;4922241;29;20176;-79
2023/07/12 09:04:23;;;;;;;5.97;2.47;;;26.20;99.90;;;;;;4931029;29;20108;-78
2023/07/12 09:06:58;;;;;;;4.30;2.45;;;26.40;99.90;;;;;;4940162;29;20433;-81
2023/07/12 09:09:26;;;;;;;2.20;2.00;;;26.00;99.90;;;;;;4955964;28;20043;-79
2023/07/12 09:11:52;;;;;;;3.38;2.38;;;25.60;99.90;;;;;;4954623;29;20027;-79
2023/07/12 09:14:19;;;;;;;5.50;2.63;;;25.40;99.90;;;;;;4936243;29;20054;-77
2023/07/12 09:16:54;;;;;;;2.78;1.85;;;25.40;99.90;;;;;;4937084;29;20065;-79
2023/07/12 09:19:27;;;;;;;3.92;1.80;;;25.70;99.90;;;;;;4936348;29;20456;-83
2023/07/12 09:21:59;;;;;;;4.88;2.35;;;26.80;99.90;;;;;;4954891;29;20436;-82
2023/07/12 09:24:28;;;;;;;3.42;2.67;;;27.10;99.90;;;;;;4960102;29;20073;-78
2023/07/12 09:27:18;;;;;;;6.50;2.60;;;27.60;99.90;;;;;;4958657;29;20046;-79
2023/07/12 09:29:44;;;;;;;4.10;3.05;;;27.60;99.90;;;;;;4957817;29;20106;-78
2023/07/12 09:32:23;;;;;;;3.67;2.60;;;27.50;99.90;;;;;;4961374;29;20083;-77
2023/07/12 09:34:50;;;;;;;4.75;2.25;;;27.50;99.90;;;;;;4937857;29;20539;-78
2023/07/12 09:37:22;;;;;;;7.05;3.83;;;27.30;99.90;;;;;;4934072;29;20035;-79
2023/07/12 09:39:57;;;;;;;4.45;2.15;;;26.90;99.90;;;;;;4939165;29;20103;-82
2023/07/12 09:42:24;;;;;;;4.80;2.60;;;26.70;99.90;;;;;;4937911;29;20059;-84
2023/07/12 09:44:50;;;;;;;4.00;2.35;;;27.30;99.90;;;;;;4936121;29;20098;-77
2023/07/12 09:47:40;;;;;;;5.32;2.90;;;27.60;99.90;;;;;;4936738;29;20031;-80
2023/07/12 09:50:47;;;;;;;10.25;3.38;;;27.30;99.90;;;;;;4941349;29;20035;-78
2023/07/12 09:53:39;;;;;;;2.63;2.42;;;26.60;99.90;;;;;;4890532;29;20043;-76
2023/07/12 09:56:24;;;;;;;4.05;2.80;;;26.00;99.90;;;;;;4928752;29;20094;-76
2023/07/12 09:59:12;;;;;;;2.45;2.00;;;26.20;99.90;;;;;;4933353;29;20028;-76
2023/07/12 10:02:14;;;;;;;4.55;2.17;;;27.00;99.90;;;;;;4933467;29;20031;-78
2023/07/12 10:04:52;;;;;;;3.25;2.20;;;27.60;99.90;;;;;;4934285;29;20121;-79
2023/07/12 10:07:57;;;;;;;4.57;2.60;;;27.70;99.90;;;;;;4935226;29;20065;-85
2023/07/12 10:10:32;;;;;;;3.58;2.38;;;26.50;99.90;;;;;;4927246;29;20059;-80
2023/07/12 10:13:13;;;;;;;2.45;2.20;;;26.70;99.90;;;;;;4938736;29;20106;-77
2023/07/12 10:15:40;;;;;;;1.92;1.83;;;27.10;99.90;;;;;;4933716;29;20050;-77
2023/07/12 10:18:17;;;;;;;3.33;2.50;;;27.10;99.90;;;;;;4942755;29;20046;-78
2023/07/12 10:20:43;;;;;;;1.80;1.67;;;26.70;99.90;;;;;;4963277;29;20323;-77
2023/07/12 10:23:12;;;;;;;2.42;2.15;;;25.80;99.90;;;;;;4963927;29;20094;-77
2023/07/12 10:25:44;;;;;;;6.10;2.35;;;25.90;99.90;;;;;;4960876;28;20023;-77
2023/07/12 10:28:13;;;;;;;3.63;2.08;;;26.00;99.90;;;;;;4946792;29;20109;-78
2023/07/12 10:30:40;;;;;;;3.60;2.40;;;26.30;99.90;;;;;;4945464;29;20103;-77
2023/07/12 10:33:29;;;;;;;2.55;1.90;;;26.40;99.90;;;;;;4955751;29;20067;-77
2023/07/12 10:36:02;;;;;;;2.58;1.90;;;26.60;99.90;;;;;;4952557;29;20117;-77
2023/07/12 10:38:28;;;;;;;3.50;2.15;;;26.90;99.90;;;;;;4931820;29;20049;-77
2023/07/12 10:41:23;;;;;;;2.70;2.13;;;27.30;99.90;;;;;;4934022;29;20531;-78
2023/07/12 10:43:56;;;;;;;2.47;2.20;;;28.20;99.90;;;;;;4954397;28;20043;-78
2023/07/12 10:46:29;;;;;;;8.10;2.50;;;28.10;99.90;;;;;;4951721;29;20031;-77
2023/07/12 10:48:56;;;;;;;2.53;2.00;;;27.90;99.90;;;;;;4951179;29;20031;-76
2023/07/12 10:51:28;;;;;;;6.97;2.67;;;28.20;99.90;;;;;;4933860;29;20035;-76
2023/07/12 10:53:55;;;;;;;2.88;2.60;;;28.50;99.90;;;;;;4955065;29;20066;-76
2023/07/12 10:56:27;;;;;;;2.10;1.90;;;28.60;99.50;;;;;;4951661;29;20043;-75
2023/07/12 10:58:59;;;;;;;2.42;2.20;;;28.90;99.10;;;;;;4950750;29;20040;-76
2023/07/12 11:01:43;;;;;;;2.25;1.92;;;29.30;97.40;;;;;;4933274;29;20029;-76
2023/07/12 11:04:10;;;;;;;2.33;1.90;;;28.60;97.80;;;;;;4932804;29;20725;-76
2023/07/12 11:06:40;;;;;;;3.42;2.60;;;28.50;98.70;;;;;;4951646;29;20035;-80
2023/07/12 11:09:10;;;;;;;3.70;2.10;;;28.90;97.60;;;;;;4950928;29;20035;-77
2023/07/12 11:11:50;;;;;;;4.00;2.55;;;28.50;97.10;;;;;;4939226;29;20027;-77
2023/07/12 11:14:19;;;;;;;3.28;1.95;;;28.40;97.60;;;;;;4954077;29;20019;-77
2023/07/12 11:16:51;;;;;;;6.65;2.22;;;28.30;97.70;;;;;;4950990;29;20427;-77
2023/07/12 11:19:45;;;;;;;4.35;2.00;;;28.20;97.30;;;;;;4953424;29;20094;-77
2023/07/12 11:22:19;;;;;;;8.27;1.98;;;28.30;99.80;;;;;;4947962;29;20055;-78
2023/07/12 11:24:44;;;;;;;2.40;1.80;;;28.60;98.30;;;;;;4952189;29;20030;-77
2023/07/12 11:27:53;;;;;;;1.80;1.70;;;28.30;97.60;;;;;;4958821;29;20252;-77
2023/07/12 11:30:28;;;;;;;;;;;28.30;96.60;;;;;;4962537;29;20027;-77
2023/07/12 11:33:03;;;;;;;3.13;2.40;;;27.80;97.40;;;;;;4954477;29;19910;-75
2023/07/12 11:35:47;;;;;;;4.38;2.10;;;27.70;97.90;;;;;;4937955;28;20023;-76
2023/07/12 11:38:41;;;;;;;3.28;2.10;;;27.20;98.20;;;;;;4951342;29;20034;-76
2023/07/12 11:41:15;;;;;;;3.78;2.38;;;27.30;98.20;;;;;;4952312;29;20073;-77
2023/07/12 11:43:41;;;;;;;2.88;2.05;;;27.90;99.40;;;;;;4935817;29;20178;-76
2023/07/12 11:46:18;;;;;;;3.28;2.08;;;27.40;98.10;;;;;;4950723;29;20662;-77
2023/07/12 11:48:50;;;;;;;5.35;2.50;;;27.50;97.70;;;;;;4933161;29;20054;-77
2023/07/12 11:51:27;;;;;;;2.25;2.08;;;27.50;97.90;;;;;;4950081;29;20387;-76
2023/07/12 11:53:57;;;;;;;3.63;2.20;;;27.60;98.90;;;;;;4960587;29;20027;-76
2023/07/12 11:56:24;;;;;;;5.88;2.28;;;27.90;98.10;;;;;;4952325;29;20055;-76
2023/07/12 11:58:50;;;;;;;3.92;2.13;;;27.70;97.20;;;;;;4950317;29;20023;-77
2023/07/12 12:01:17;;;;;;;2.40;2.20;;;27.70;98.20;;;;;;4934370;29;20636;-77
2023/07/12 12:03:47;;;;;;;3.88;2.22;;;27.40;99.60;;;;;;4944230;29;20035;-77
2023/07/12 12:06:13;;;;;;;3.85;2.85;;;27.80;98.10;;;;;;4958532;29;20083;-76
2023/07/12 12:08:44;;;;;;;3.55;2.08;;;28.70;97.40;;;;;;4937522;29;20123;-76
2023/07/12 12:11:10;;;;;;;4.45;2.00;;;28.90;96.60;;;;;;4955153;29;20058;-77
2023/07/12 12:13:42;;;;;;;5.25;1.90;;;29.30;95.30;;;;;;4939264;29;20506;-77
2023/07/12 12:16:17;;;;;;;6.82;2.30;;;29.30;95.40;;;;;;4950682;29;20419;-77
2023/07/12 12:19:07;;;;;;;6.15;2.38;;;30.40;94.90;;;;;;4950738;29;20487;-77
2023/07/12 12:21:32;;;;;;;6.25;2.25;;;30.70;93.10;;;;;;4953477;29;20047;-76
2023/07/12 12:24:13;;;;;;;4.50;2.17;;;30.00;93.90;;;;;;4956734;29;20338;-77
2023/07/12 12:26:41;;;;;;;6.43;2.67;;;29.30;93.00;;;;;;4937363;29;20111;-80
2023/07/12 12:29:22;;;;;;;4.75;2.60;;;28.50;94.50;;;;;;4936059;29;20563;-78
2023/07/12 12:31:54;;;;;;;3.00;2.28;;;28.70;96.30;;;;;;4932242;29;20024;-79
2023/07/12 12:34:21;;;;;;;4.38;2.53;;;29.20;94.80;;;;;;4951535;29;20027;-78
2023/07/12 12:36:56;;;;;;;4.70;2.10;;;30.30;93.00;;;;;;4932185;29;20083;-78
2023/07/12 12:39:22;;;;;;;3.78;1.77;;;29.50;92.10;;;;;;4949456;29;20140;-83
2023/07/12 12:42:17;;;;;;;6.43;2.58;;;28.90;93.70;;;;;;4949655;29;20503;-76
2023/07/12 12:44:43;;;;;;;2.15;1.95;;;28.10;93.70;;;;;;4944740;29;20047;-78
2023/07/12 12:47:17;;;;;;;3.35;2.40;;;27.70;95.00;;;;;;4949194;28;20031;-78
2023/07/12 12:49:43;;;;;;;7.97;2.95;;;27.60;94.80;;;;;;4950763;29;20106;-76
2023/07/12 12:52:24;;;;;;;5.43;2.40;;;28.50;94.70;;;;;;4952238;29;20126;-78
2023/07/12 12:54:51;;;;;;;5.32;2.20;;;28.10;93.40;;;;;;4935193;29;20041;-76
2023/07/12 12:57:17;;;;;;;4.88;2.47;;;28.10;94.70;;;;;;4938508;29;20032;-79